aviador You're here:

KTBN Decoded Metar

FORT LEONARDWOOD in MO, USA
Report Time2017-10-20 11:56:00
UTC Time2017-10-20 12:20:09
Flight Rules vfr VFR
Wind150° at 03 kt
W.Decomp.*RWY 14: 3.0 kt HW 0.4 kt RCW
W.Rank150° ranks 1
Current wind is below 150° avg. (6.8)
Visibility9999 m
Phenomena:N/A
Clouds:N/A
Expected CloudBase > 400 ft AGL from Temp-Dew spread
CeilingNone
Temp09°C (ISA -4)
Dew Point08°C (94% RH)
AAT7.5°C
QNH1022 hPa
Density Alt561 ft
Elevation1,158 ft
Report Wrong Elevation
Raw Report
KTBN 201156Z AUTO 15003KT 10SM CLR 09/08 A3018 RMK AO2 SLP221
T00910077 10138 20091 52010=

Extra information for KTBN:More info

Metar Taf Metar & Taf Last 4 Metars F.Rules Stats Wind Profile Meteogram Temp Stats Airport Information Weather charts Add Link Nearby VenuesMetar ALERT Operation Metar Decoded Social comments

AIRNAV info for KTBN